sensor_id;sensor_type;location;lat;lon;timestamp;P1;durP1;ratioP1;P2;durP2;ratioP2
40787;SDS011;26497;52.494;7.546;2023-11-21T00:01:15;220.55;;;90.78;;
40787;SDS011;26497;52.494;7.546;2023-11-21T00:03:42;232.13;;;91.93;;
40787;SDS011;26497;52.494;7.546;2023-11-21T00:06:09;259.15;;;92.63;;
40787;SDS011;26497;52.494;7.546;2023-11-21T00:08:37;233.43;;;88.32;;
40787;SDS011;26497;52.494;7.546;2023-11-21T00:11:05;213.25;;;85.95;;
40787;SDS011;26497;52.494;7.546;2023-11-21T00:13:32;219.93;;;84.53;;
40787;SDS011;26497;52.494;7.546;2023-11-21T00:16:00;207.32;;;82.80;;
40787;SDS011;26497;52.494;7.546;2023-11-21T00:18:27;234.63;;;87.70;;
40787;SDS011;26497;52.494;7.546;2023-11-21T00:20:54;223.57;;;85.03;;
40787;SDS011;26497;52.494;7.546;2023-11-21T00:23:24;184.20;;;79.70;;
40787;SDS011;26497;52.494;7.546;2023-11-21T00:25:51;237.43;;;84.50;;
40787;SDS011;26497;52.494;7.546;2023-11-21T00:28:19;237.13;;;81.53;;
40787;SDS011;26497;52.494;7.546;2023-11-21T00:30:47;222.00;;;82.03;;
40787;SDS011;26497;52.494;7.546;2023-11-21T00:33:14;217.98;;;81.05;;
40787;SDS011;26497;52.494;7.546;2023-11-21T00:35:41;219.60;;;81.63;;
40787;SDS011;26497;52.494;7.546;2023-11-21T00:38:08;246.60;;;80.93;;
40787;SDS011;26497;52.494;7.546;2023-11-21T00:40:36;294.90;;;84.70;;
40787;SDS011;26497;52.494;7.546;2023-11-21T00:43:03;257.52;;;82.53;;
40787;SDS011;26497;52.494;7.546;2023-11-21T00:45:31;239.35;;;80.60;;
40787;SDS011;26497;52.494;7.546;2023-11-21T00:47:58;262.38;;;84.82;;
40787;SDS011;26497;52.494;7.546;2023-11-21T00:50:25;240.95;;;80.97;;
40787;SDS011;26497;52.494;7.546;2023-11-21T00:52:52;277.42;;;82.18;;
40787;SDS011;26497;52.494;7.546;2023-11-21T00:55:19;338.63;;;87.10;;
40787;SDS011;26497;52.494;7.546;2023-11-21T00:57:47;268.45;;;80.93;;
40787;SDS011;26497;52.494;7.546;2023-11-21T01:00:14;205.32;;;77.97;;
40787;SDS011;26497;52.494;7.546;2023-11-21T01:02:43;228.65;;;80.40;;
40787;SDS011;26497;52.494;7.546;2023-11-21T01:05:11;269.60;;;81.22;;
40787;SDS011;26497;52.494;7.546;2023-11-21T01:07:38;275.20;;;81.78;;
40787;SDS011;26497;52.494;7.546;2023-11-21T01:10:05;341.10;;;85.43;;
40787;SDS011;26497;52.494;7.546;2023-11-21T01:12:34;299.73;;;81.15;;
40787;SDS011;26497;52.494;7.546;2023-11-21T01:15:01;299.17;;;83.18;;
40787;SDS011;26497;52.494;7.546;2023-11-21T01:17:29;259.70;;;78.30;;
40787;SDS011;26497;52.494;7.546;2023-11-21T01:19:57;366.55;;;86.03;;
40787;SDS011;26497;52.494;7.546;2023-11-21T01:22:24;284.30;;;83.13;;
40787;SDS011;26497;52.494;7.546;2023-11-21T01:24:51;274.02;;;83.90;;
40787;SDS011;26497;52.494;7.546;2023-11-21T01:27:18;265.88;;;80.55;;
40787;SDS011;26497;52.494;7.546;2023-11-21T01:29:45;292.02;;;84.03;;
40787;SDS011;26497;52.494;7.546;2023-11-21T01:32:12;289.67;;;79.80;;
40787;SDS011;26497;52.494;7.546;2023-11-21T01:34:39;258.55;;;77.88;;
40787;SDS011;26497;52.494;7.546;2023-11-21T01:37:07;373.00;;;85.40;;
40787;SDS011;26497;52.494;7.546;2023-11-21T01:39:37;305.67;;;80.63;;
40787;SDS011;26497;52.494;7.546;2023-11-21T01:42:04;364.50;;;85.75;;
40787;SDS011;26497;52.494;7.546;2023-11-21T01:44:32;345.40;;;85.03;;
40787;SDS011;26497;52.494;7.546;2023-11-21T01:47:00;328.35;;;84.47;;
40787;SDS011;26497;52.494;7.546;2023-11-21T01:49:30;341.85;;;83.60;;
40787;SDS011;26497;52.494;7.546;2023-11-21T01:51:58;264.90;;;79.25;;
40787;SDS011;26497;52.494;7.546;2023-11-21T01:54:27;252.95;;;78.47;;
40787;SDS011;26497;52.494;7.546;2023-11-21T01:56:55;334.27;;;81.90;;
40787;SDS011;26497;52.494;7.546;2023-11-21T01:59:24;326.80;;;82.35;;
40787;SDS011;26497;52.494;7.546;2023-11-21T02:01:53;358.25;;;84.72;;
40787;SDS011;26497;52.494;7.546;2023-11-21T02:04:21;333.65;;;82.63;;
40787;SDS011;26497;52.494;7.546;2023-11-21T02:06:48;202.07;;;81.07;;
40787;SDS011;26497;52.494;7.546;2023-11-21T02:09:15;300.55;;;81.47;;
40787;SDS011;26497;52.494;7.546;2023-11-21T02:11:44;308.88;;;80.97;;
40787;SDS011;26497;52.494;7.546;2023-11-21T02:14:11;289.15;;;79.45;;
40787;SDS011;26497;52.494;7.546;2023-11-21T02:16:38;321.42;;;82.45;;
40787;SDS011;26497;52.494;7.546;2023-11-21T02:19:06;255.35;;;75.97;;
40787;SDS011;26497;52.494;7.546;2023-11-21T02:21:38;350.10;;;85.05;;
40787;SDS011;26497;52.494;7.546;2023-11-21T02:24:07;362.67;;;82.32;;
40787;SDS011;26497;52.494;7.546;2023-11-21T02:26:35;302.60;;;80.03;;
40787;SDS011;26497;52.494;7.546;2023-11-21T02:29:02;263.10;;;78.07;;
40787;SDS011;26497;52.494;7.546;2023-11-21T02:31:29;271.60;;;78.90;;
40787;SDS011;26497;52.494;7.546;2023-11-21T02:33:58;276.92;;;78.68;;
40787;SDS011;26497;52.494;7.546;2023-11-21T02:36:24;283.80;;;78.60;;
40787;SDS011;26497;52.494;7.546;2023-11-21T02:38:52;313.13;;;79.38;;
40787;SDS011;26497;52.494;7.546;2023-11-21T02:41:20;274.48;;;77.22;;
40787;SDS011;26497;52.494;7.546;2023-11-21T02:43:47;285.00;;;78.50;;
40787;SDS011;26497;52.494;7.546;2023-11-21T02:46:14;228.27;;;76.43;;
40787;SDS011;26497;52.494;7.546;2023-11-21T02:48:41;318.58;;;78.13;;
40787;SDS011;26497;52.494;7.546;2023-11-21T02:51:07;298.27;;;75.47;;
40787;SDS011;26497;52.494;7.546;2023-11-21T02:53:34;301.45;;;80.38;;
40787;SDS011;26497;52.494;7.546;2023-11-21T02:56:04;369.92;;;83.82;;
40787;SDS011;26497;52.494;7.546;2023-11-21T02:58:33;262.35;;;77.53;;
40787;SDS011;26497;52.494;7.546;2023-11-21T03:01:00;344.85;;;81.97;;
40787;SDS011;26497;52.494;7.546;2023-11-21T03:03:27;348.95;;;82.70;;
40787;SDS011;26497;52.494;7.546;2023-11-21T03:05:54;357.20;;;80.13;;
40787;SDS011;26497;52.494;7.546;2023-11-21T03:08:21;316.88;;;76.20;;
40787;SDS011;26497;52.494;7.546;2023-11-21T03:10:48;271.73;;;76.75;;
40787;SDS011;26497;52.494;7.546;2023-11-21T03:13:15;245.80;;;76.47;;
40787;SDS011;26497;52.494;7.546;2023-11-21T03:15:43;384.58;;;82.65;;
40787;SDS011;26497;52.494;7.546;2023-11-21T03:18:10;344.20;;;81.35;;
40787;SDS011;26497;52.494;7.546;2023-11-21T03:20:38;354.20;;;80.57;;
40787;SDS011;26497;52.494;7.546;2023-11-21T03:23:05;208.77;;;72.65;;
40787;SDS011;26497;52.494;7.546;2023-11-21T03:25:32;272.30;;;78.50;;
40787;SDS011;26497;52.494;7.546;2023-11-21T03:27:59;263.25;;;78.43;;
40787;SDS011;26497;52.494;7.546;2023-11-21T03:30:26;274.60;;;78.20;;
40787;SDS011;26497;52.494;7.546;2023-11-21T03:32:54;279.88;;;78.60;;
40787;SDS011;26497;52.494;7.546;2023-11-21T03:35:21;308.75;;;81.15;;
40787;SDS011;26497;52.494;7.546;2023-11-21T03:37:49;406.17;;;86.85;;
40787;SDS011;26497;52.494;7.546;2023-11-21T03:40:16;353.60;;;85.32;;
40787;SDS011;26497;52.494;7.546;2023-11-21T03:42:43;315.52;;;78.40;;
40787;SDS011;26497;52.494;7.546;2023-11-21T03:45:10;282.38;;;79.15;;
40787;SDS011;26497;52.494;7.546;2023-11-21T03:47:37;379.13;;;82.05;;
40787;SDS011;26497;52.494;7.546;2023-11-21T03:50:09;415.17;;;87.07;;
40787;SDS011;26497;52.494;7.546;2023-11-21T03:52:36;254.88;;;73.05;;
40787;SDS011;26497;52.494;7.546;2023-11-21T03:55:04;262.83;;;73.28;;
40787;SDS011;26497;52.494;7.546;2023-11-21T03:57:31;202.43;;;73.82;;
40787;SDS011;26497;52.494;7.546;2023-11-21T03:59:58;242.32;;;76.38;;
40787;SDS011;26497;52.494;7.546;2023-11-21T04:02:25;335.90;;;83.38;;
40787;SDS011;26497;52.494;7.546;2023-11-21T04:04:53;301.30;;;81.50;;
40787;SDS011;26497;52.494;7.546;2023-11-21T04:07:21;306.05;;;79.93;;
40787;SDS011;26497;52.494;7.546;2023-11-21T04:09:48;225.93;;;78.63;;
40787;SDS011;26497;52.494;7.546;2023-11-21T04:12:15;368.77;;;87.63;;
40787;SDS011;26497;52.494;7.546;2023-11-21T04:14:42;292.75;;;84.40;;
40787;SDS011;26497;52.494;7.546;2023-11-21T04:17:09;420.83;;;86.38;;
40787;SDS011;26497;52.494;7.546;2023-11-21T04:19:36;277.25;;;80.80;;
40787;SDS011;26497;52.494;7.546;2023-11-21T04:22:03;356.13;;;86.55;;
40787;SDS011;26497;52.494;7.546;2023-11-21T04:24:32;408.85;;;87.97;;
40787;SDS011;26497;52.494;7.546;2023-11-21T04:26:58;224.32;;;75.97;;
40787;SDS011;26497;52.494;7.546;2023-11-21T04:29:25;390.20;;;87.93;;
40787;SDS011;26497;52.494;7.546;2023-11-21T04:31:52;266.00;;;80.57;;
40787;SDS011;26497;52.494;7.546;2023-11-21T04:34:19;297.27;;;82.32;;
40787;SDS011;26497;52.494;7.546;2023-11-21T04:36:46;332.95;;;84.50;;
40787;SDS011;26497;52.494;7.546;2023-11-21T04:39:13;313.60;;;80.82;;
40787;SDS011;26497;52.494;7.546;2023-11-21T04:41:41;358.33;;;85.45;;
40787;SDS011;26497;52.494;7.546;2023-11-21T04:44:08;294.48;;;81.85;;
40787;SDS011;26497;52.494;7.546;2023-11-21T04:46:36;366.05;;;87.85;;
40787;SDS011;26497;52.494;7.546;2023-11-21T04:49:03;329.05;;;80.05;;
40787;SDS011;26497;52.494;7.546;2023-11-21T04:51:30;360.55;;;86.72;;
40787;SDS011;26497;52.494;7.546;2023-11-21T04:53:57;318.70;;;81.28;;
40787;SDS011;26497;52.494;7.546;2023-11-21T04:56:24;368.30;;;83.40;;
40787;SDS011;26497;52.494;7.546;2023-11-21T04:58:53;306.70;;;80.22;;
40787;SDS011;26497;52.494;7.546;2023-11-21T05:01:20;237.27;;;76.00;;
40787;SDS011;26497;52.494;7.546;2023-11-21T05:03:47;268.70;;;75.10;;
40787;SDS011;26497;52.494;7.546;2023-11-21T05:06:15;296.75;;;77.25;;
40787;SDS011;26497;52.494;7.546;2023-11-21T05:08:41;247.95;;;76.95;;
40787;SDS011;26497;52.494;7.546;2023-11-21T05:11:08;316.58;;;81.88;;
40787;SDS011;26497;52.494;7.546;2023-11-21T05:13:36;273.45;;;74.18;;
40787;SDS011;26497;52.494;7.546;2023-11-21T05:16:05;214.95;;;71.70;;
40787;SDS011;26497;52.494;7.546;2023-11-21T05:18:33;260.02;;;76.63;;
40787;SDS011;26497;52.494;7.546;2023-11-21T05:21:00;222.45;;;76.07;;
40787;SDS011;26497;52.494;7.546;2023-11-21T05:23:28;212.23;;;71.80;;
40787;SDS011;26497;52.494;7.546;2023-11-21T05:25:55;204.98;;;76.72;;
40787;SDS011;26497;52.494;7.546;2023-11-21T05:28:22;250.60;;;77.80;;
40787;SDS011;26497;52.494;7.546;2023-11-21T05:30:49;331.55;;;83.18;;
40787;SDS011;26497;52.494;7.546;2023-11-21T05:33:17;264.05;;;80.85;;
40787;SDS011;26497;52.494;7.546;2023-11-21T05:35:44;213.25;;;76.57;;
40787;SDS011;26497;52.494;7.546;2023-11-21T05:38:12;363.30;;;87.55;;
40787;SDS011;26497;52.494;7.546;2023-11-21T05:40:38;352.52;;;84.82;;
40787;SDS011;26497;52.494;7.546;2023-11-21T05:43:06;337.20;;;84.55;;
40787;SDS011;26497;52.494;7.546;2023-11-21T05:45:33;307.58;;;84.85;;
40787;SDS011;26497;52.494;7.546;2023-11-21T05:48:00;198.85;;;75.65;;
40787;SDS011;26497;52.494;7.546;2023-11-21T05:50:29;259.25;;;79.05;;
40787;SDS011;26497;52.494;7.546;2023-11-21T05:52:56;313.98;;;83.45;;
40787;SDS011;26497;52.494;7.546;2023-11-21T05:55:25;223.50;;;76.88;;
40787;SDS011;26497;52.494;7.546;2023-11-21T05:57:52;168.55;;;72.00;;
40787;SDS011;26497;52.494;7.546;2023-11-21T06:00:19;217.57;;;74.70;;
40787;SDS011;26497;52.494;7.546;2023-11-21T06:02:46;266.35;;;78.28;;
40787;SDS011;26497;52.494;7.546;2023-11-21T06:05:16;272.33;;;81.22;;
40787;SDS011;26497;52.494;7.546;2023-11-21T06:07:46;204.77;;;73.78;;
40787;SDS011;26497;52.494;7.546;2023-11-21T06:10:13;268.38;;;80.97;;
40787;SDS011;26497;52.494;7.546;2023-11-21T06:12:40;260.73;;;83.55;;
40787;SDS011;26497;52.494;7.546;2023-11-21T06:15:08;236.73;;;75.30;;
40787;SDS011;26497;52.494;7.546;2023-11-21T06:17:38;218.47;;;74.73;;
40787;SDS011;26497;52.494;7.546;2023-11-21T06:20:06;177.20;;;72.75;;
40787;SDS011;26497;52.494;7.546;2023-11-21T06:22:39;267.27;;;79.00;;
40787;SDS011;26497;52.494;7.546;2023-11-21T06:25:09;177.48;;;74.00;;
40787;SDS011;26497;52.494;7.546;2023-11-21T06:27:38;201.25;;;74.50;;
40787;SDS011;26497;52.494;7.546;2023-11-21T06:30:07;191.55;;;74.22;;
40787;SDS011;26497;52.494;7.546;2023-11-21T06:32:36;176.80;;;69.70;;
40787;SDS011;26497;52.494;7.546;2023-11-21T06:35:05;168.80;;;73.03;;
40787;SDS011;26497;52.494;7.546;2023-11-21T06:37:35;136.40;;;67.65;;
40787;SDS011;26497;52.494;7.546;2023-11-21T06:40:02;173.27;;;73.57;;
40787;SDS011;26497;52.494;7.546;2023-11-21T06:46:12;176.50;;;69.40;;
40787;SDS011;26497;52.494;7.546;2023-11-21T06:48:40;140.60;;;69.82;;
40787;SDS011;26497;52.494;7.546;2023-11-21T06:51:08;165.05;;;71.95;;
40787;SDS011;26497;52.494;7.546;2023-11-21T06:53:35;204.95;;;71.57;;
40787;SDS011;26497;52.494;7.546;2023-11-21T06:56:03;163.00;;;71.45;;
40787;SDS011;26497;52.494;7.546;2023-11-21T06:58:32;137.07;;;70.47;;
40787;SDS011;26497;52.494;7.546;2023-11-21T07:01:00;154.35;;;71.72;;
40787;SDS011;26497;52.494;7.546;2023-11-21T07:03:28;143.82;;;69.32;;
40787;SDS011;26497;52.494;7.546;2023-11-21T07:05:55;137.05;;;67.65;;
40787;SDS011;26497;52.494;7.546;2023-11-21T07:08:22;140.93;;;64.75;;
40787;SDS011;26497;52.494;7.546;2023-11-21T07:10:49;139.50;;;72.05;;
40787;SDS011;26497;52.494;7.546;2023-11-21T07:13:16;139.57;;;67.20;;
40787;SDS011;26497;52.494;7.546;2023-11-21T07:15:43;123.05;;;65.60;;
40787;SDS011;26497;52.494;7.546;2023-11-21T07:18:10;129.35;;;64.53;;
40787;SDS011;26497;52.494;7.546;2023-11-21T07:20:38;133.02;;;65.22;;
40787;SDS011;26497;52.494;7.546;2023-11-21T07:23:05;109.97;;;63.60;;
40787;SDS011;26497;52.494;7.546;2023-11-21T07:25:32;102.93;;;65.28;;
40787;SDS011;26497;52.494;7.546;2023-11-21T07:27:59;114.55;;;66.38;;
40787;SDS011;26497;52.494;7.546;2023-11-21T07:30:26;109.38;;;62.95;;
40787;SDS011;26497;52.494;7.546;2023-11-21T07:32:53;135.30;;;64.57;;
40787;SDS011;26497;52.494;7.546;2023-11-21T07:35:20;115.75;;;65.22;;
40787;SDS011;26497;52.494;7.546;2023-11-21T07:37:48;95.85;;;62.33;;
40787;SDS011;26497;52.494;7.546;2023-11-21T07:40:16;127.10;;;63.38;;
40787;SDS011;26497;52.494;7.546;2023-11-21T07:42:43;91.35;;;62.63;;
40787;SDS011;26497;52.494;7.546;2023-11-21T07:45:10;110.20;;;63.33;;
40787;SDS011;26497;52.494;7.546;2023-11-21T07:47:37;102.22;;;61.58;;
40787;SDS011;26497;52.494;7.546;2023-11-21T07:50:05;101.93;;;62.67;;
40787;SDS011;26497;52.494;7.546;2023-11-21T07:52:34;114.70;;;61.70;;
40787;SDS011;26497;52.494;7.546;2023-11-21T07:55:02;104.85;;;61.90;;
40787;SDS011;26497;52.494;7.546;2023-11-21T07:57:30;101.25;;;61.40;;
40787;SDS011;26497;52.494;7.546;2023-11-21T07:59:57;108.38;;;63.80;;
40787;SDS011;26497;52.494;7.546;2023-11-21T08:02:25;132.32;;;63.60;;
40787;SDS011;26497;52.494;7.546;2023-11-21T08:04:52;128.13;;;64.28;;
40787;SDS011;26497;52.494;7.546;2023-11-21T08:07:21;143.30;;;65.25;;
40787;SDS011;26497;52.494;7.546;2023-11-21T08:09:48;116.53;;;61.28;;
40787;SDS011;26497;52.494;7.546;2023-11-21T08:12:17;134.70;;;64.00;;
40787;SDS011;26497;52.494;7.546;2023-11-21T08:14:45;171.07;;;66.40;;
40787;SDS011;26497;52.494;7.546;2023-11-21T08:17:12;147.05;;;64.20;;
40787;SDS011;26497;52.494;7.546;2023-11-21T08:19:39;135.40;;;65.03;;
40787;SDS011;26497;52.494;7.546;2023-11-21T08:22:06;168.75;;;68.60;;
40787;SDS011;26497;52.494;7.546;2023-11-21T08:24:34;172.43;;;67.63;;
40787;SDS011;26497;52.494;7.546;2023-11-21T08:30:22;166.55;;;64.65;;
40787;SDS011;26497;52.494;7.546;2023-11-21T08:32:49;198.27;;;67.60;;
40787;SDS011;26497;52.494;7.546;2023-11-21T08:35:17;203.60;;;70.70;;
40787;SDS011;26497;52.494;7.546;2023-11-21T08:37:44;252.70;;;78.47;;
40787;SDS011;26497;52.494;7.546;2023-11-21T08:40:26;281.23;;;78.80;;
40787;SDS011;26497;52.494;7.546;2023-11-21T08:42:54;207.52;;;76.72;;
40787;SDS011;26497;52.494;7.546;2023-11-21T08:45:23;192.02;;;75.32;;
40787;SDS011;26497;52.494;7.546;2023-11-21T08:47:51;211.27;;;79.38;;
40787;SDS011;26497;52.494;7.546;2023-11-21T08:50:19;260.70;;;83.53;;
40787;SDS011;26497;52.494;7.546;2023-11-21T08:52:46;270.77;;;83.72;;
40787;SDS011;26497;52.494;7.546;2023-11-21T08:55:13;259.77;;;83.38;;
40787;SDS011;26497;52.494;7.546;2023-11-21T08:57:41;266.65;;;85.07;;
40787;SDS011;26497;52.494;7.546;2023-11-21T09:00:12;261.48;;;84.30;;
40787;SDS011;26497;52.494;7.546;2023-11-21T09:02:42;206.95;;;78.53;;
40787;SDS011;26497;52.494;7.546;2023-11-21T09:05:09;272.60;;;86.25;;
40787;SDS011;26497;52.494;7.546;2023-11-21T09:07:38;275.02;;;89.53;;
40787;SDS011;26497;52.494;7.546;2023-11-21T09:10:07;306.13;;;85.88;;
40787;SDS011;26497;52.494;7.546;2023-11-21T09:12:36;273.92;;;85.82;;
40787;SDS011;26497;52.494;7.546;2023-11-21T09:15:04;195.13;;;82.78;;
40787;SDS011;26497;52.494;7.546;2023-11-21T09:17:34;232.38;;;86.40;;
40787;SDS011;26497;52.494;7.546;2023-11-21T09:20:01;246.25;;;88.50;;
40787;SDS011;26497;52.494;7.546;2023-11-21T09:22:30;236.93;;;86.65;;
40787;SDS011;26497;52.494;7.546;2023-11-21T09:24:57;192.65;;;83.40;;
40787;SDS011;26497;52.494;7.546;2023-11-21T09:27:24;151.02;;;75.00;;
40787;SDS011;26497;52.494;7.546;2023-11-21T09:29:51;147.35;;;76.28;;
40787;SDS011;26497;52.494;7.546;2023-11-21T09:32:19;137.73;;;73.55;;
40787;SDS011;26497;52.494;7.546;2023-11-21T09:34:48;130.90;;;73.28;;
40787;SDS011;26497;52.494;7.546;2023-11-21T09:37:16;106.90;;;70.65;;
40787;SDS011;26497;52.494;7.546;2023-11-21T09:39:44;120.35;;;69.30;;
40787;SDS011;26497;52.494;7.546;2023-11-21T09:42:14;107.90;;;71.07;;
40787;SDS011;26497;52.494;7.546;2023-11-21T09:44:48;127.32;;;72.30;;
40787;SDS011;26497;52.494;7.546;2023-11-21T09:50:33;141.70;;;71.55;;
40787;SDS011;26497;52.494;7.546;2023-11-21T09:53:13;141.43;;;74.03;;
40787;SDS011;26497;52.494;7.546;2023-11-21T09:55:46;127.13;;;72.13;;
40787;SDS011;26497;52.494;7.546;2023-11-21T09:58:16;120.45;;;72.47;;
40787;SDS011;26497;52.494;7.546;2023-11-21T10:00:44;115.63;;;73.93;;
40787;SDS011;26497;52.494;7.546;2023-11-21T10:03:13;124.25;;;75.25;;
40787;SDS011;26497;52.494;7.546;2023-11-21T10:05:43;116.95;;;74.00;;
40787;SDS011;26497;52.494;7.546;2023-11-21T10:08:12;125.32;;;75.57;;
40787;SDS011;26497;52.494;7.546;2023-11-21T10:10:43;104.93;;;75.68;;
40787;SDS011;26497;52.494;7.546;2023-11-21T10:13:13;114.65;;;78.75;;
40787;SDS011;26497;52.494;7.546;2023-11-21T10:15:42;110.38;;;76.85;;
40787;SDS011;26497;52.494;7.546;2023-11-21T10:18:13;131.95;;;77.32;;
40787;SDS011;26497;52.494;7.546;2023-11-21T10:20:45;133.52;;;76.70;;
40787;SDS011;26497;52.494;7.546;2023-11-21T10:23:17;104.60;;;78.18;;
40787;SDS011;26497;52.494;7.546;2023-11-21T10:25:46;104.25;;;74.35;;
40787;SDS011;26497;52.494;7.546;2023-11-21T10:28:13;103.32;;;75.07;;
40787;SDS011;26497;52.494;7.546;2023-11-21T10:30:40;106.85;;;75.60;;
40787;SDS011;26497;52.494;7.546;2023-11-21T10:33:09;99.78;;;74.80;;
40787;SDS011;26497;52.494;7.546;2023-11-21T10:35:40;100.75;;;77.30;;
40787;SDS011;26497;52.494;7.546;2023-11-21T10:38:15;97.20;;;73.07;;
40787;SDS011;26497;52.494;7.546;2023-11-21T10:40:43;91.57;;;74.97;;
40787;SDS011;26497;52.494;7.546;2023-11-21T10:43:11;88.45;;;72.25;;
40787;SDS011;26497;52.494;7.546;2023-11-21T10:45:41;92.07;;;71.47;;
40787;SDS011;26497;52.494;7.546;2023-11-21T10:48:09;81.95;;;68.25;;
40787;SDS011;26497;52.494;7.546;2023-11-21T10:50:40;78.43;;;70.43;;
40787;SDS011;26497;52.494;7.546;2023-11-21T10:53:09;75.72;;;67.00;;
40787;SDS011;26497;52.494;7.546;2023-11-21T10:55:38;69.68;;;62.33;;
40787;SDS011;26497;52.494;7.546;2023-11-21T10:58:05;68.75;;;61.40;;
40787;SDS011;26497;52.494;7.546;2023-11-21T11:00:35;68.40;;;62.17;;
40787;SDS011;26497;52.494;7.546;2023-11-21T11:03:05;67.85;;;61.80;;
40787;SDS011;26497;52.494;7.546;2023-11-21T11:05:38;65.88;;;59.70;;
40787;SDS011;26497;52.494;7.546;2023-11-21T11:08:12;64.18;;;58.67;;
40787;SDS011;26497;52.494;7.546;2023-11-21T11:10:44;63.22;;;57.65;;
40787;SDS011;26497;52.494;7.546;2023-11-21T11:13:11;65.68;;;60.10;;
40787;SDS011;26497;52.494;7.546;2023-11-21T11:15:40;72.45;;;66.88;;
40787;SDS011;26497;52.494;7.546;2023-11-21T11:18:07;84.85;;;78.45;;
40787;SDS011;26497;52.494;7.546;2023-11-21T11:20:36;94.28;;;87.22;;
40787;SDS011;26497;52.494;7.546;2023-11-21T11:23:11;111.40;;;103.97;;
40787;SDS011;26497;52.494;7.546;2023-11-21T11:26:02;139.15;;;130.13;;
40787;SDS011;26497;52.494;7.546;2023-11-21T11:28:47;159.82;;;149.85;;
40787;SDS011;26497;52.494;7.546;2023-11-21T11:31:36;181.73;;;170.48;;
40787;SDS011;26497;52.494;7.546;2023-11-21T11:34:14;210.23;;;197.73;;
40787;SDS011;26497;52.494;7.546;2023-11-21T11:36:54;229.73;;;215.77;;
40787;SDS011;26497;52.494;7.546;2023-11-21T11:39:29;233.48;;;219.52;;
40787;SDS011;26497;52.494;7.546;2023-11-21T11:42:01;236.23;;;222.23;;
40787;SDS011;26497;52.494;7.546;2023-11-21T11:44:46;247.68;;;233.02;;
40787;SDS011;26497;52.494;7.546;2023-11-21T11:47:19;247.15;;;232.65;;
40787;SDS011;26497;52.494;7.546;2023-11-21T11:50:00;240.30;;;226.10;;
40787;SDS011;26497;52.494;7.546;2023-11-21T11:52:32;221.32;;;208.30;;
40787;SDS011;26497;52.494;7.546;2023-11-21T11:55:03;184.00;;;172.95;;
40787;SDS011;26497;52.494;7.546;2023-11-21T11:57:35;154.65;;;145.00;;
40787;SDS011;26497;52.494;7.546;2023-11-21T12:00:16;121.07;;;113.72;;
40787;SDS011;26497;52.494;7.546;2023-11-21T12:05:14;97.80;;;91.38;;
40787;SDS011;26497;52.494;7.546;2023-11-21T12:07:46;60.35;;;56.10;;
40787;SDS011;26497;52.494;7.546;2023-11-21T12:10:34;48.92;;;45.47;;
40787;SDS011;26497;52.494;7.546;2023-11-21T12:13:12;40.30;;;37.03;;
40787;SDS011;26497;52.494;7.546;2023-11-21T12:15:40;36.40;;;33.53;;
40787;SDS011;26497;52.494;7.546;2023-11-21T12:18:07;34.67;;;32.17;;
40787;SDS011;26497;52.494;7.546;2023-11-21T12:20:34;35.53;;;32.38;;
40787;SDS011;26497;52.494;7.546;2023-11-21T12:23:04;34.47;;;31.45;;
40787;SDS011;26497;52.494;7.546;2023-11-21T12:25:38;31.88;;;29.25;;
40787;SDS011;26497;52.494;7.546;2023-11-21T12:28:06;28.30;;;26.00;;
40787;SDS011;26497;52.494;7.546;2023-11-21T12:30:33;26.42;;;24.38;;
40787;SDS011;26497;52.494;7.546;2023-11-21T12:33:03;27.13;;;25.02;;
40787;SDS011;26497;52.494;7.546;2023-11-21T12:35:32;27.08;;;24.70;;
40787;SDS011;26497;52.494;7.546;2023-11-21T12:38:00;24.55;;;22.35;;
40787;SDS011;26497;52.494;7.546;2023-11-21T12:40:30;24.30;;;22.15;;
40787;SDS011;26497;52.494;7.546;2023-11-21T12:42:59;24.13;;;21.77;;
40787;SDS011;26497;52.494;7.546;2023-11-21T12:45:29;23.02;;;20.98;;
40787;SDS011;26497;52.494;7.546;2023-11-21T12:47:56;22.40;;;20.52;;
40787;SDS011;26497;52.494;7.546;2023-11-21T12:50:30;22.90;;;20.77;;
40787;SDS011;26497;52.494;7.546;2023-11-21T12:52:59;22.55;;;20.80;;
40787;SDS011;26497;52.494;7.546;2023-11-21T12:55:29;23.05;;;20.85;;
40787;SDS011;26497;52.494;7.546;2023-11-21T12:58:00;22.88;;;20.65;;
40787;SDS011;26497;52.494;7.546;2023-11-21T13:00:34;22.95;;;20.80;;
40787;SDS011;26497;52.494;7.546;2023-11-21T13:03:04;22.15;;;20.35;;
40787;SDS011;26497;52.494;7.546;2023-11-21T13:05:33;23.75;;;21.35;;
40787;SDS011;26497;52.494;7.546;2023-11-21T13:08:04;23.00;;;21.00;;
40787;SDS011;26497;52.494;7.546;2023-11-21T13:10:35;22.75;;;20.63;;
40787;SDS011;26497;52.494;7.546;2023-11-21T13:13:05;21.15;;;19.17;;
40787;SDS011;26497;52.494;7.546;2023-11-21T13:15:34;23.15;;;20.73;;
40787;SDS011;26497;52.494;7.546;2023-11-21T13:18:05;23.70;;;21.60;;
40787;SDS011;26497;52.494;7.546;2023-11-21T13:20:36;22.88;;;20.77;;
40787;SDS011;26497;52.494;7.546;2023-11-21T13:23:06;23.02;;;21.08;;
40787;SDS011;26497;52.494;7.546;2023-11-21T13:25:36;37.42;;;29.52;;
40787;SDS011;26497;52.494;7.546;2023-11-21T13:28:07;23.35;;;21.38;;
40787;SDS011;26497;52.494;7.546;2023-11-21T13:30:35;25.02;;;22.50;;
40787;SDS011;26497;52.494;7.546;2023-11-21T13:33:05;25.08;;;22.67;;
40787;SDS011;26497;52.494;7.546;2023-11-21T13:35:33;25.65;;;22.30;;
40787;SDS011;26497;52.494;7.546;2023-11-21T13:38:07;24.23;;;22.02;;
40787;SDS011;26497;52.494;7.546;2023-11-21T13:40:35;25.92;;;23.33;;
40787;SDS011;26497;52.494;7.546;2023-11-21T13:43:09;23.45;;;21.20;;
40787;SDS011;26497;52.494;7.546;2023-11-21T13:45:37;25.15;;;22.88;;
40787;SDS011;26497;52.494;7.546;2023-11-21T13:48:05;24.80;;;22.50;;
40787;SDS011;26497;52.494;7.546;2023-11-21T13:50:35;24.13;;;21.83;;
40787;SDS011;26497;52.494;7.546;2023-11-21T13:53:02;23.73;;;21.73;;
40787;SDS011;26497;52.494;7.546;2023-11-21T13:55:35;24.20;;;21.63;;
40787;SDS011;26497;52.494;7.546;2023-11-21T13:58:04;25.30;;;22.95;;
40787;SDS011;26497;52.494;7.546;2023-11-21T14:00:36;23.52;;;21.23;;
40787;SDS011;26497;52.494;7.546;2023-11-21T14:03:09;25.25;;;23.02;;
40787;SDS011;26497;52.494;7.546;2023-11-21T14:05:44;25.55;;;23.05;;
40787;SDS011;26497;52.494;7.546;2023-11-21T14:08:15;26.85;;;24.25;;
40787;SDS011;26497;52.494;7.546;2023-11-21T14:10:45;27.20;;;24.77;;
40787;SDS011;26497;52.494;7.546;2023-11-21T14:13:18;28.30;;;25.60;;
40787;SDS011;26497;52.494;7.546;2023-11-21T14:15:49;27.73;;;25.25;;
40787;SDS011;26497;52.494;7.546;2023-11-21T14:18:24;28.33;;;25.48;;
40787;SDS011;26497;52.494;7.546;2023-11-21T14:20:55;29.92;;;27.30;;
40787;SDS011;26497;52.494;7.546;2023-11-21T14:23:22;26.38;;;24.15;;
40787;SDS011;26497;52.494;7.546;2023-11-21T14:25:50;26.67;;;24.40;;
40787;SDS011;26497;52.494;7.546;2023-11-21T14:28:17;28.38;;;25.55;;
40787;SDS011;26497;52.494;7.546;2023-11-21T14:30:44;29.63;;;26.60;;
40787;SDS011;26497;52.494;7.546;2023-11-21T14:33:13;31.13;;;28.00;;